Time;durP1;ratioP1;P1;durP2;ratioP2;P2;SDS_P1;SDS_P2;PMS_P1;PMS_P2;Temp;Humidity;BMP_temperature;BMP_pressure;BME280_temperature;BME280_humidity;BME280_pressure;Samples;Min_cycle;Max_cycle;Signal;HPM_P1;HPM_P2
2023/06/02 00:00:17;;;;;;;;;;;;;;;;;;;;;
2023/06/02 00:00:39;;;;;;;6.38;5.68;;;;;;;;;;513363;28;1343;-71
2023/06/02 00:02:31;;;;;;;6.68;5.70;;;;;;;;;;507879;28;1388;-71
2023/06/02 00:03:17;;;;;;;5.88;5.28;;;;;;;;;;499567;28;1567;-71
2023/06/02 00:03:48;;;;;;;6.25;5.65;;;;;;;;;;497874;29;1316;-70
2023/06/02 00:04:03;;;;;;;8.63;5.40;;;;;;;;;;510167;28;1119;-71
2023/06/02 00:04:47;;;;;;;6.00;5.40;;;;;;;;;;509022;28;1260;-70
2023/06/02 00:05:35;;;;;;;5.97;5.35;;;;;;;;;;510538;28;920;-71
2023/06/02 00:06:00;;;;;;;6.72;5.43;;;;;;;;;;511457;28;1072;-69
2023/06/02 00:07:54;;;;;;;6.20;5.57;;;;;;;;;;502319;28;1288;-71
2023/06/02 00:08:22;;;;;;;6.30;5.70;;;;;;;;;;503669;28;1424;-70
2023/06/02 00:08:51;;;;;;;7.75;5.95;;;;;;;;;;503376;28;1458;-69
2023/06/02 00:09:31;;;;;;;;;;;;;;;;;;;;;
2023/06/02 00:10:08;;;;;;;7.68;6.05;;;;;;;;;;501514;28;1266;-70
2023/06/02 00:10:59;;;;;;;6.57;5.93;;;;;;;;;;503638;28;1301;-70
2023/06/02 00:11:27;;;;;;;;;;;;;;;;;;;;;
2023/06/02 00:12:00;;;;;;;7.22;6.05;;;;;;;;;;507137;28;991;-70
2023/06/02 00:12:27;;;;;;;;;;;;;;;;;;;;;
2023/06/02 00:12:52;;;;;;;7.07;6.07;;;;;;;;;;508197;28;1047;-71
2023/06/02 00:13:14;;;;;;;7.10;6.13;;;;;;;;;;507402;28;1375;-71
2023/06/02 00:14:18;;;;;;;8.18;6.20;;;;;;;;;;506288;28;1358;-70
2023/06/02 00:15:30;;;;;;;7.90;6.20;;;;;;;;;;504875;28;1534;-71
2023/06/02 00:16:15;;;;;;;9.35;6.55;;;;;;;;;;505893;28;1182;-70
2023/06/02 00:16:43;;;;;;;7.22;6.47;;;;;;;;;;497619;29;1593;-70
2023/06/02 00:17:00;;;;;;;7.03;6.20;;;;;;;;;;499587;29;1318;-73
2023/06/02 00:17:18;;;;;;;6.85;6.15;;;;;;;;;;501297;29;1214;-73
2023/06/02 00:17:34;;;;;;;7.63;6.40;;;;;;;;;;503446;28;1288;-73
2023/06/02 00:17:50;;;;;;;6.82;6.13;;;;;;;;;;503893;28;1253;-73
2023/06/02 00:18:07;;;;;;;6.50;5.90;;;;;;;;;;504326;28;1029;-73
2023/06/02 00:18:25;;;;;;;6.78;6.07;;;;;;;;;;504954;28;1287;-75
2023/06/02 00:18:40;;;;;;;6.88;6.00;;;;;;;;;;503879;28;1421;-73
2023/06/02 00:18:56;;;;;;;7.25;6.38;;;;;;;;;;505777;28;1236;-73
2023/06/02 00:19:13;;;;;;;7.53;6.60;;;;;;;;;;506441;28;1340;-74
2023/06/02 00:19:32;;;;;;;7.30;6.57;;;;;;;;;;507341;28;1291;-73
2023/06/02 00:19:48;;;;;;;7.10;6.40;;;;;;;;;;508080;28;1458;-73
2023/06/02 00:20:05;;;;;;;8.82;6.57;;;;;;;;;;508566;28;1948;-73
2023/06/02 00:20:20;;;;;;;9.02;6.50;;;;;;;;;;507575;28;1435;-74
2023/06/02 00:20:36;;;;;;;7.13;6.13;;;;;;;;;;510381;28;1157;-73
2023/06/02 00:20:52;;;;;;;6.80;6.10;;;;;;;;;;510171;28;1062;-73
2023/06/02 00:21:09;;;;;;;6.80;6.13;;;;;;;;;;508793;28;1354;-72
2023/06/02 00:21:25;;;;;;;6.97;6.28;;;;;;;;;;509153;28;1131;-73
2023/06/02 00:21:41;;;;;;;8.25;6.70;;;;;;;;;;506299;28;1531;-73
2023/06/02 00:21:57;;;;;;;9.38;6.68;;;;;;;;;;504099;28;1285;-73
2023/06/02 00:22:16;;;;;;;8.52;6.47;;;;;;;;;;504541;28;1321;-73
2023/06/02 00:22:32;;;;;;;7.10;6.40;;;;;;;;;;503942;28;1559;-73
2023/06/02 00:23:08;;;;;;;7.00;6.30;;;;;;;;;;503706;28;1194;-74
2023/06/02 00:23:24;;;;;;;7.00;6.30;;;;;;;;;;504908;28;1477;-73
2023/06/02 00:23:40;;;;;;;7.20;6.47;;;;;;;;;;506497;28;992;-73
2023/06/02 00:23:55;;;;;;;8.25;6.75;;;;;;;;;;506231;28;1318;-72
2023/06/02 00:24:11;;;;;;;7.65;6.53;;;;;;;;;;508705;28;1477;-73
2023/06/02 00:24:47;;;;;;;6.97;6.33;;;;;;;;;;506517;28;1281;-73
2023/06/02 00:25:03;;;;;;;7.63;6.82;;;;;;;;;;504207;28;1495;-73
2023/06/02 00:25:22;;;;;;;7.45;6.72;;;;;;;;;;503445;28;1414;-73
2023/06/02 00:25:39;;;;;;;8.27;6.75;;;;;;;;;;502772;29;1483;-73
2023/06/02 00:25:58;;;;;;;7.50;6.72;;;;;;;;;;504074;28;1508;-73
2023/06/02 00:26:15;;;;;;;7.80;6.75;;;;;;;;;;504634;28;1507;-73
2023/06/02 00:26:30;;;;;;;7.35;6.60;;;;;;;;;;505517;28;1387;-73
2023/06/02 00:26:46;;;;;;;6.93;6.30;;;;;;;;;;506244;28;961;-73
2023/06/02 00:27:02;;;;;;;7.38;6.60;;;;;;;;;;504960;28;1233;-73
2023/06/02 00:27:17;;;;;;;8.18;6.82;;;;;;;;;;504717;28;1217;-73
2023/06/02 00:27:36;;;;;;;8.15;6.75;;;;;;;;;;506385;28;1130;-73
2023/06/02 00:27:52;;;;;;;7.88;6.75;;;;;;;;;;506483;28;1400;-73
2023/06/02 00:28:07;;;;;;;8.48;7.03;;;;;;;;;;505059;28;1300;-73
2023/06/02 00:28:23;;;;;;;8.40;7.07;;;;;;;;;;504466;28;1292;-72
2023/06/02 00:28:39;;;;;;;7.65;6.90;;;;;;;;;;505768;28;1293;-73
2023/06/02 00:28:57;;;;;;;7.50;6.80;;;;;;;;;;506395;28;974;-74
2023/06/02 00:29:13;;;;;;;7.50;6.70;;;;;;;;;;505205;28;1393;-73
2023/06/02 00:29:29;;;;;;;7.80;6.70;;;;;;;;;;505518;28;1235;-73
2023/06/02 00:29:45;;;;;;;7.90;6.63;;;;;;;;;;506960;28;1475;-73
2023/06/02 00:30:01;;;;;;;7.82;6.80;;;;;;;;;;507861;28;1280;-73
2023/06/02 00:30:16;;;;;;;7.70;6.88;;;;;;;;;;505547;28;1385;-73
2023/06/02 00:30:34;;;;;;;8.05;7.00;;;;;;;;;;501261;29;1422;-73
2023/06/02 00:30:49;;;;;;;8.48;7.15;;;;;;;;;;502520;28;1381;-73
2023/06/02 00:31:05;;;;;;;8.25;7.05;;;;;;;;;;504234;28;1130;-74
2023/06/02 00:31:21;;;;;;;7.90;7.10;;;;;;;;;;505888;28;1233;-73
2023/06/02 00:31:36;;;;;;;7.78;6.95;;;;;;;;;;504324;28;1546;-72
2023/06/02 00:31:52;;;;;;;7.60;6.82;;;;;;;;;;504666;28;1231;-73
2023/06/02 00:32:11;;;;;;;7.60;6.90;;;;;;;;;;506362;28;1449;-73
2023/06/02 00:32:26;;;;;;;7.45;6.70;;;;;;;;;;509209;28;1547;-73
2023/06/02 00:32:42;;;;;;;7.43;6.63;;;;;;;;;;509600;28;1478;-73
2023/06/02 00:32:58;;;;;;;7.67;6.87;;;;;;;;;;508708;28;1286;-73
2023/06/02 00:33:14;;;;;;;7.88;7.07;;;;;;;;;;507945;28;991;-73
2023/06/02 00:33:29;;;;;;;8.13;7.28;;;;;;;;;;504500;28;1373;-73
2023/06/02 00:33:46;;;;;;;8.65;7.38;;;;;;;;;;508132;28;1324;-73
2023/06/02 00:34:01;;;;;;;8.30;7.07;;;;;;;;;;507406;28;1141;-73
2023/06/02 00:34:37;;;;;;;8.45;6.85;;;;;;;;;;505463;28;1215;-73
2023/06/02 00:34:53;;;;;;;7.60;6.80;;;;;;;;;;507830;28;1576;-73
2023/06/02 00:35:09;;;;;;;8.48;6.90;;;;;;;;;;507991;28;1182;-72
2023/06/02 00:35:25;;;;;;;10.00;7.70;;;;;;;;;;508724;28;1293;-73
2023/06/02 00:35:41;;;;;;;8.27;7.25;;;;;;;;;;509508;28;1530;-73
2023/06/02 00:35:57;;;;;;;8.10;6.93;;;;;;;;;;509257;28;1294;-72
2023/06/02 00:36:12;;;;;;;9.23;7.15;;;;;;;;;;507678;28;1234;-73
2023/06/02 00:36:28;;;;;;;7.95;7.10;;;;;;;;;;507264;28;1247;-72
2023/06/02 00:36:43;;;;;;;8.03;7.23;;;;;;;;;;506217;28;1324;-72
2023/06/02 00:36:59;;;;;;;8.10;7.10;;;;;;;;;;506590;28;1061;-73
2023/06/02 00:37:15;;;;;;;7.95;7.00;;;;;;;;;;506791;28;1545;-72
2023/06/02 00:37:31;;;;;;;7.90;7.03;;;;;;;;;;507453;28;1142;-74
2023/06/02 00:37:46;;;;;;;7.90;7.10;;;;;;;;;;505354;28;1190;-73
2023/06/02 00:38:04;;;;;;;7.90;7.10;;;;;;;;;;506999;28;1072;-72
2023/06/02 00:38:22;;;;;;;8.30;7.22;;;;;;;;;;505411;28;1254;-73
2023/06/02 00:38:41;;;;;;;8.38;7.25;;;;;;;;;;506177;28;1460;-72
2023/06/02 00:38:57;;;;;;;8.15;7.22;;;;;;;;;;507127;28;1466;-72
2023/06/02 00:39:12;;;;;;;8.32;7.30;;;;;;;;;;506895;28;1626;-73
2023/06/02 00:39:28;;;;;;;7.88;7.07;;;;;;;;;;507372;28;1385;-73
2023/06/02 00:39:44;;;;;;;7.57;6.83;;;;;;;;;;508633;28;1304;-72
2023/06/02 00:39:59;;;;;;;7.78;7.00;;;;;;;;;;504625;28;1992;-73
2023/06/02 00:40:15;;;;;;;7.68;6.88;;;;;;;;;;504708;28;1329;-73
2023/06/02 00:40:32;;;;;;;8.43;7.13;;;;;;;;;;504818;28;1231;-73
2023/06/02 00:40:48;;;;;;;8.50;7.35;;;;;;;;;;505524;28;1514;-73
2023/06/02 00:41:04;;;;;;;7.72;6.93;;;;;;;;;;505551;28;1143;-73
2023/06/02 00:41:26;;;;;;;7.43;6.72;;;;;;;;;;504685;28;1220;-73
2023/06/02 00:41:42;;;;;;;7.43;6.72;;;;;;;;;;504924;28;1264;-73
2023/06/02 00:41:58;;;;;;;8.20;6.93;;;;;;;;;;505483;28;1296;-73
2023/06/02 00:42:14;;;;;;;8.52;7.00;;;;;;;;;;505394;28;1047;-73
2023/06/02 00:42:30;;;;;;;8.05;7.15;;;;;;;;;;508903;28;988;-72
2023/06/02 00:42:46;;;;;;;7.83;7.03;;;;;;;;;;510347;28;965;-72
2023/06/02 00:43:02;;;;;;;7.50;6.75;;;;;;;;;;510059;28;1236;-73
2023/06/02 00:43:17;;;;;;;7.85;6.93;;;;;;;;;;509756;28;1355;-72
2023/06/02 00:43:33;;;;;;;7.80;7.00;;;;;;;;;;508931;28;1404;-72
2023/06/02 00:43:48;;;;;;;8.07;7.10;;;;;;;;;;505285;28;1316;-73
2023/06/02 00:44:07;;;;;;;8.88;7.35;;;;;;;;;;506275;28;1529;-73
2023/06/02 00:44:23;;;;;;;8.52;7.38;;;;;;;;;;505500;28;1237;-73
2023/06/02 00:44:38;;;;;;;7.93;6.93;;;;;;;;;;505747;28;1470;-73
2023/06/02 00:44:54;;;;;;;8.40;6.85;;;;;;;;;;504088;28;1376;-73
2023/06/02 00:45:10;;;;;;;8.75;7.20;;;;;;;;;;504300;28;1130;-73
2023/06/02 00:45:26;;;;;;;8.03;7.23;;;;;;;;;;503315;28;1158;-72
2023/06/02 00:45:41;;;;;;;7.90;7.10;;;;;;;;;;509721;28;1261;-72
2023/06/02 00:45:57;;;;;;;8.45;7.38;;;;;;;;;;510807;28;1511;-73
2023/06/02 00:46:12;;;;;;;9.10;7.07;;;;;;;;;;511951;28;971;-74
2023/06/02 00:46:28;;;;;;;9.05;7.07;;;;;;;;;;512076;28;1386;-73
2023/06/02 00:46:44;;;;;;;8.27;7.30;;;;;;;;;;511727;28;1434;-73
2023/06/02 00:46:59;;;;;;;7.68;6.88;;;;;;;;;;511975;28;1361;-73
2023/06/02 00:47:15;;;;;;;7.45;6.70;;;;;;;;;;511652;28;1332;-73
2023/06/02 00:47:31;;;;;;;7.53;6.83;;;;;;;;;;512760;28;1267;-72
2023/06/02 00:47:46;;;;;;;7.63;6.82;;;;;;;;;;511086;28;1353;-73
2023/06/02 00:48:02;;;;;;;7.90;6.80;;;;;;;;;;511242;28;1081;-73
2023/06/02 00:48:18;;;;;;;8.48;6.97;;;;;;;;;;513042;28;1311;-73
2023/06/02 00:48:34;;;;;;;8.75;6.90;;;;;;;;;;513333;28;923;-73
2023/06/02 00:48:50;;;;;;;8.52;6.90;;;;;;;;;;512849;28;1299;-72
2023/06/02 00:49:08;;;;;;;7.80;7.00;;;;;;;;;;513642;28;1311;-72
2023/06/02 00:49:24;;;;;;;7.65;6.95;;;;;;;;;;514020;28;936;-73
2023/06/02 00:49:41;;;;;;;7.93;7.15;;;;;;;;;;512534;28;1462;-72
2023/06/02 00:49:58;;;;;;;7.95;7.15;;;;;;;;;;510918;28;1537;-73
2023/06/02 00:50:14;;;;;;;7.60;6.90;;;;;;;;;;512658;28;1814;-72
2023/06/02 00:50:31;;;;;;;7.50;6.80;;;;;;;;;;511416;28;995;-72
2023/06/02 00:50:47;;;;;;;7.60;6.80;;;;;;;;;;513470;28;1292;-73
2023/06/02 00:51:04;;;;;;;8.05;7.05;;;;;;;;;;511856;28;1435;-73
2023/06/02 00:51:20;;;;;;;8.60;7.25;;;;;;;;;;510029;28;1334;-73
2023/06/02 00:51:36;;;;;;;8.35;7.20;;;;;;;;;;511862;28;1319;-72
2023/06/02 00:51:53;;;;;;;8.23;6.72;;;;;;;;;;511313;28;1327;-73
2023/06/02 00:52:09;;;;;;;8.63;6.88;;;;;;;;;;510876;28;1306;-72
2023/06/02 00:52:25;;;;;;;8.45;7.00;;;;;;;;;;508687;28;1372;-72
2023/06/02 00:53:01;;;;;;;7.93;6.80;;;;;;;;;;509985;28;1431;-72
2023/06/02 00:53:16;;;;;;;8.75;6.80;;;;;;;;;;513023;28;1428;-72
2023/06/02 00:53:32;;;;;;;8.60;6.80;;;;;;;;;;513304;28;1283;-72
2023/06/02 00:53:48;;;;;;;9.27;6.93;;;;;;;;;;514683;28;1393;-73
2023/06/02 00:54:05;;;;;;;8.83;6.90;;;;;;;;;;514515;28;1047;-72
2023/06/02 00:54:20;;;;;;;7.88;7.07;;;;;;;;;;513107;28;1298;-72
2023/06/02 00:54:36;;;;;;;7.82;7.05;;;;;;;;;;513945;28;1084;-72
2023/06/02 00:54:53;;;;;;;7.75;6.88;;;;;;;;;;512693;28;1196;-73
2023/06/02 00:55:11;;;;;;;8.80;7.05;;;;;;;;;;512641;28;1634;-73
2023/06/02 00:55:29;;;;;;;7.57;6.80;;;;;;;;;;512207;28;1316;-73
2023/06/02 00:55:46;;;;;;;7.38;6.68;;;;;;;;;;510923;28;1509;-72
2023/06/02 00:56:02;;;;;;;7.75;7.00;;;;;;;;;;508797;28;1343;-73
2023/06/02 00:56:17;;;;;;;8.57;7.10;;;;;;;;;;509233;28;1368;-73
2023/06/02 00:56:33;;;;;;;8.65;7.00;;;;;;;;;;508847;28;1281;-72
2023/06/02 00:56:51;;;;;;;8.50;7.10;;;;;;;;;;507741;28;1276;-72
2023/06/02 00:57:07;;;;;;;8.65;6.75;;;;;;;;;;507259;28;1315;-73
2023/06/02 00:57:28;;;;;;;8.68;6.68;;;;;;;;;;508235;28;998;-72
2023/06/02 00:57:44;;;;;;;9.15;6.78;;;;;;;;;;508016;28;1349;-72
2023/06/02 00:58:03;;;;;;;8.68;7.03;;;;;;;;;;507892;28;1381;-72
2023/06/02 00:58:19;;;;;;;9.27;6.75;;;;;;;;;;511655;28;1297;-72
2023/06/02 00:58:37;;;;;;;8.82;6.70;;;;;;;;;;511781;28;1482;-72
2023/06/02 00:58:53;;;;;;;8.23;7.00;;;;;;;;;;511226;28;1533;-72
2023/06/02 00:59:10;;;;;;;8.00;7.03;;;;;;;;;;512911;28;1836;-73
2023/06/02 00:59:27;;;;;;;8.32;6.97;;;;;;;;;;512451;28;1550;-72
2023/06/02 00:59:45;;;;;;;7.65;6.80;;;;;;;;;;512278;28;1528;-73
2023/06/02 01:00:06;;;;;;;7.55;6.75;;;;;;;;;;510603;28;1946;-72
2023/06/02 01:00:23;;;;;;;7.72;6.88;;;;;;;;;;512518;28;1404;-73
2023/06/02 01:00:40;;;;;;;7.70;6.90;;;;;;;;;;512580;28;1452;-72
2023/06/02 01:00:56;;;;;;;7.70;6.88;;;;;;;;;;512010;28;1513;-73
2023/06/02 01:01:12;;;;;;;7.82;7.03;;;;;;;;;;511998;28;1440;-74
2023/06/02 01:01:29;;;;;;;8.20;7.38;;;;;;;;;;511794;28;1073;-73
2023/06/02 01:01:48;;;;;;;8.77;7.10;;;;;;;;;;511762;28;1395;-73
2023/06/02 01:02:04;;;;;;;8.45;7.00;;;;;;;;;;513813;28;974;-72
2023/06/02 01:02:20;;;;;;;7.82;7.03;;;;;;;;;;511018;28;1233;-73
2023/06/02 01:02:38;;;;;;;7.53;6.80;;;;;;;;;;512904;28;1384;-72
2023/06/02 01:02:57;;;;;;;7.40;6.70;;;;;;;;;;512403;28;1462;-72
2023/06/02 01:03:14;;;;;;;7.45;6.65;;;;;;;;;;514219;28;1529;-72
2023/06/02 01:03:31;;;;;;;7.75;6.72;;;;;;;;;;512449;28;1371;-72
2023/06/02 01:03:49;;;;;;;7.68;6.88;;;;;;;;;;515073;28;1538;-72
2023/06/02 01:04:07;;;;;;;7.50;6.70;;;;;;;;;;512243;28;1357;-73
2023/06/02 01:04:23;;;;;;;8.15;7.15;;;;;;;;;;512607;28;1468;-72
2023/06/02 01:04:44;;;;;;;8.32;7.40;;;;;;;;;;512228;28;1215;-72
2023/06/02 01:05:10;;;;;;;7.65;6.85;;;;;;;;;;512683;28;1519;-73
2023/06/02 01:05:26;;;;;;;7.60;6.90;;;;;;;;;;512670;28;1066;-73
2023/06/02 01:05:44;;;;;;;7.80;6.97;;;;;;;;;;510868;28;1369;-73
2023/06/02 01:06:04;;;;;;;7.70;6.78;;;;;;;;;;511830;28;1345;-73
2023/06/02 01:06:31;;;;;;;7.57;6.85;;;;;;;;;;511484;28;1177;-72
2023/06/02 01:06:49;;;;;;;8.30;7.20;;;;;;;;;;513486;28;1152;-72
2023/06/02 01:07:06;;;;;;;9.00;7.30;;;;;;;;;;515019;28;1247;-72
2023/06/02 01:07:25;;;;;;;9.02;7.20;;;;;;;;;;514790;28;1443;-73
2023/06/02 01:07:46;;;;;;;7.88;7.05;;;;;;;;;;512591;28;1594;-72
2023/06/02 01:08:23;;;;;;;7.88;6.75;;;;;;;;;;516479;28;1416;-73
2023/06/02 01:08:40;;;;;;;8.95;6.93;;;;;;;;;;516234;28;1047;-73
2023/06/02 01:08:56;;;;;;;8.05;6.85;;;;;;;;;;515190;28;1270;-71
2023/06/02 01:09:13;;;;;;;7.68;6.90;;;;;;;;;;515959;28;1116;-71
2023/06/02 01:09:32;;;;;;;7.45;6.75;;;;;;;;;;513338;28;1305;-73
2023/06/02 01:09:50;;;;;;;7.75;6.95;;;;;;;;;;512229;28;1046;-73
2023/06/02 01:10:07;;;;;;;8.15;7.10;;;;;;;;;;513822;28;1677;-73
2023/06/02 01:10:23;;;;;;;8.10;7.25;;;;;;;;;;513262;28;1159;-72
2023/06/02 01:10:40;;;;;;;8.48;7.57;;;;;;;;;;512632;28;1247;-72
2023/06/02 01:10:55;;;;;;;8.13;7.32;;;;;;;;;;511171;28;1307;-74
2023/06/02 01:11:11;;;;;;;8.13;7.32;;;;;;;;;;511613;28;1326;-72
2023/06/02 01:11:27;;;;;;;8.20;7.40;;;;;;;;;;512543;28;1168;-73
2023/06/02 01:11:48;;;;;;;7.93;7.13;;;;;;;;;;511095;28;1391;-72
2023/06/02 01:12:04;;;;;;;8.30;7.07;;;;;;;;;;513717;28;1427;-72
2023/06/02 01:12:20;;;;;;;7.50;6.80;;;;;;;;;;511764;28;1317;-72
2023/06/02 01:12:35;;;;;;;7.22;6.60;;;;;;;;;;512914;28;1146;-73
2023/06/02 01:12:55;;;;;;;7.50;6.80;;;;;;;;;;513477;28;1198;-72
2023/06/02 01:13:11;;;;;;;7.90;7.03;;;;;;;;;;512778;28;1418;-73
2023/06/02 01:13:30;;;;;;;8.50;7.38;;;;;;;;;;511081;28;1287;-73
2023/06/02 01:13:48;;;;;;;7.90;7.03;;;;;;;;;;511565;28;1962;-72
2023/06/02 01:14:05;;;;;;;7.90;7.10;;;;;;;;;;511927;28;1061;-73
2023/06/02 01:14:20;;;;;;;7.88;7.18;;;;;;;;;;511383;28;1419;-72
2023/06/02 01:14:36;;;;;;;7.90;7.10;;;;;;;;;;511429;28;1133;-72
2023/06/02 01:14:51;;;;;;;7.93;7.13;;;;;;;;;;511370;28;1148;-73
2023/06/02 01:15:07;;;;;;;9.07;7.00;;;;;;;;;;511486;28;1240;-72
2023/06/02 01:15:23;;;;;;;8.60;7.00;;;;;;;;;;511426;28;1428;-73
2023/06/02 01:15:39;;;;;;;7.60;6.90;;;;;;;;;;512703;28;1433;-72
2023/06/02 01:15:54;;;;;;;7.40;6.70;;;;;;;;;;514326;28;1401;-72
2023/06/02 01:16:13;;;;;;;7.43;6.72;;;;;;;;;;512718;28;1326;-73
2023/06/02 01:16:34;;;;;;;7.38;6.65;;;;;;;;;;512530;28;1489;-73
2023/06/02 01:16:52;;;;;;;7.60;6.80;;;;;;;;;;512307;28;1453;-72
2023/06/02 01:17:07;;;;;;;7.45;6.70;;;;;;;;;;512557;28;1423;-72
2023/06/02 01:17:30;;;;;;;7.27;6.57;;;;;;;;;;512944;28;1299;-73
2023/06/02 01:17:46;;;;;;;8.25;7.00;;;;;;;;;;510136;28;1495;-72
2023/06/02 01:18:08;;;;;;;8.00;6.80;;;;;;;;;;509437;28;1613;-72
2023/06/02 01:18:29;;;;;;;7.72;6.93;;;;;;;;;;510691;28;1339;-73
2023/06/02 01:18:49;;;;;;;8.52;7.20;;;;;;;;;;511559;28;1395;-73
2023/06/02 01:19:13;;;;;;;8.53;6.90;;;;;;;;;;513501;28;1106;-73
2023/06/02 01:19:31;;;;;;;8.48;6.70;;;;;;;;;;515187;28;1559;-73
2023/06/02 01:19:49;;;;;;;8.55;6.93;;;;;;;;;;512989;28;1426;-73
2023/06/02 01:20:11;;;;;;;8.70;7.32;;;;;;;;;;511497;28;1934;-73
2023/06/02 01:20:28;;;;;;;8.73;6.80;;;;;;;;;;511281;28;1314;-72
2023/06/02 01:20:48;;;;;;;7.43;6.60;;;;;;;;;;512962;28;1358;-72
2023/06/02 01:21:05;;;;;;;8.50;6.82;;;;;;;;;;512436;28;959;-73
2023/06/02 01:21:23;;;;;;;8.85;7.10;;;;;;;;;;511358;28;1526;-73
2023/06/02 01:21:44;;;;;;;7.57;6.75;;;;;;;;;;510682;28;1480;-73
2023/06/02 01:22:01;;;;;;;7.60;6.82;;;;;;;;;;511223;28;1186;-73
2023/06/02 01:22:23;;;;;;;7.80;7.00;;;;;;;;;;509528;28;1430;-72
2023/06/02 01:22:57;;;;;;;7.47;6.63;;;;;;;;;;510421;28;1338;-73
2023/06/02 01:23:18;;;;;;;8.40;6.85;;;;;;;;;;509339;28;1360;-72
2023/06/02 01:23:38;;;;;;;7.82;7.03;;;;;;;;;;510782;28;1440;-72
2023/06/02 01:23:57;;;;;;;8.17;7.20;;;;;;;;;;510974;28;1121;-73
2023/06/02 01:24:14;;;;;;;7.85;7.05;;;;;;;;;;510123;28;1335;-73
2023/06/02 01:24:40;;;;;;;8.13;7.00;;;;;;;;;;510894;28;1098;-73
2023/06/02 01:24:58;;;;;;;7.78;6.85;;;;;;;;;;510224;28;1466;-73
2023/06/02 01:25:36;;;;;;;9.27;7.20;;;;;;;;;;510752;28;1386;-73
2023/06/02 01:25:55;;;;;;;9.23;7.22;;;;;;;;;;512363;28;1287;-73
2023/06/02 01:26:11;;;;;;;7.65;6.90;;;;;;;;;;512251;28;1314;-73
2023/06/02 01:26:34;;;;;;;7.45;6.72;;;;;;;;;;510724;28;1223;-73
2023/06/02 01:26:49;;;;;;;7.95;6.30;;;;;;;;;;510118;28;1604;-72
2023/06/02 01:27:10;;;;;;;8.83;6.53;;;;;;;;;;510583;28;1263;-73
2023/06/02 01:27:26;;;;;;;8.38;6.78;;;;;;;;;;510359;28;1295;-72
2023/06/02 01:27:42;;;;;;;7.88;6.82;;;;;;;;;;512794;28;1367;-72
2023/06/02 01:27:57;;;;;;;8.50;7.22;;;;;;;;;;511764;28;1511;-72
2023/06/02 01:28:16;;;;;;;8.00;7.20;;;;;;;;;;511056;28;1359;-73
2023/06/02 01:28:32;;;;;;;7.75;6.95;;;;;;;;;;509111;28;1504;-73
2023/06/02 01:28:48;;;;;;;8.52;7.10;;;;;;;;;;508402;28;1516;-72
2023/06/02 01:29:04;;;;;;;7.80;7.00;;;;;;;;;;509272;28;1245;-72
2023/06/02 01:29:19;;;;;;;8.20;6.90;;;;;;;;;;509654;28;1035;-73
2023/06/02 01:29:36;;;;;;;8.60;6.93;;;;;;;;;;512065;28;1129;-73
2023/06/02 01:29:54;;;;;;;8.07;7.07;;;;;;;;;;511852;28;1042;-73
2023/06/02 01:30:10;;;;;;;8.63;7.03;;;;;;;;;;511438;28;1566;-72
2023/06/02 01:30:26;;;;;;;8.55;7.13;;;;;;;;;;512181;28;1117;-72
2023/06/02 01:30:42;;;;;;;7.93;7.13;;;;;;;;;;511223;28;1383;-72
2023/06/02 01:31:11;;;;;;;7.82;6.95;;;;;;;;;;511320;28;1272;-73
2023/06/02 01:31:38;;;;;;;7.95;6.93;;;;;;;;;;510339;28;1377;-73
2023/06/02 01:31:56;;;;;;;8.10;7.30;;;;;;;;;;512509;28;1184;-72
2023/06/02 01:32:27;;;;;;;7.93;7.10;;;;;;;;;;512747;28;1181;-72
2023/06/02 01:33:15;;;;;;;8.20;6.95;;;;;;;;;;515401;28;1322;-73
2023/06/02 01:33:43;;;;;;;7.45;6.72;;;;;;;;;;516163;28;1215;-73
2023/06/02 01:34:08;;;;;;;7.65;6.95;;;;;;;;;;514416;28;1366;-73
2023/06/02 01:34:41;;;;;;;7.85;6.82;;;;;;;;;;512465;28;994;-72
2023/06/02 01:35:02;;;;;;;9.50;7.13;;;;;;;;;;512794;28;1217;-72
2023/06/02 01:35:27;;;;;;;8.55;7.05;;;;;;;;;;511274;28;1428;-73
2023/06/02 01:35:47;;;;;;;7.82;6.90;;;;;;;;;;510623;28;1369;-72
2023/06/02 01:36:03;;;;;;;8.15;6.72;;;;;;;;;;508325;28;1366;-72
2023/06/02 01:36:21;;;;;;;8.15;6.80;;;;;;;;;;509840;28;1528;-72
2023/06/02 01:36:43;;;;;;;7.75;6.75;;;;;;;;;;509713;28;1158;-73
2023/06/02 01:37:00;;;;;;;7.45;6.65;;;;;;;;;;511667;28;1307;-72
2023/06/02 01:37:17;;;;;;;8.88;6.80;;;;;;;;;;510666;28;1498;-73
2023/06/02 01:37:34;;;;;;;9.32;7.00;;;;;;;;;;510267;28;1340;-72
2023/06/02 01:37:54;;;;;;;8.25;7.00;;;;;;;;;;511141;28;1377;-72
2023/06/02 01:38:10;;;;;;;8.70;7.43;;;;;;;;;;509911;28;1315;-71
2023/06/02 01:38:30;;;;;;;8.88;7.00;;;;;;;;;;511336;28;1574;-72
2023/06/02 01:38:48;;;;;;;7.90;6.70;;;;;;;;;;511960;28;1562;-72
2023/06/02 01:39:05;;;;;;;8.02;6.88;;;;;;;;;;511415;28;1376;-72
2023/06/02 01:39:23;;;;;;;8.93;7.13;;;;;;;;;;510090;28;1323;-72
2023/06/02 01:39:42;;;;;;;10.07;7.20;;;;;;;;;;508614;28;1463;-72
2023/06/02 01:40:18;;;;;;;9.40;7.07;;;;;;;;;;507910;28;1920;-72
2023/06/02 01:40:35;;;;;;;8.75;7.07;;;;;;;;;;508462;28;1360;-72
2023/06/02 01:40:54;;;;;;;8.88;6.85;;;;;;;;;;509386;28;1538;-73
2023/06/02 01:41:12;;;;;;;7.88;6.95;;;;;;;;;;507909;28;1304;-74
2023/06/02 01:41:32;;;;;;;8.32;7.15;;;;;;;;;;508962;28;936;-72
2023/06/02 01:41:49;;;;;;;8.63;7.40;;;;;;;;;;510611;28;1189;-72
2023/06/02 01:42:06;;;;;;;8.15;7.32;;;;;;;;;;510131;28;1271;-72
2023/06/02 01:42:27;;;;;;;7.55;6.85;;;;;;;;;;510634;28;1491;-72
2023/06/02 01:42:43;;;;;;;7.60;6.90;;;;;;;;;;513924;28;1298;-72
2023/06/02 01:43:00;;;;;;;8.48;6.88;;;;;;;;;;514925;28;1136;-72
2023/06/02 01:43:18;;;;;;;8.57;7.22;;;;;;;;;;512729;28;1406;-72
2023/06/02 01:43:35;;;;;;;9.30;7.72;;;;;;;;;;511088;28;1350;-72
2023/06/02 01:43:54;;;;;;;8.82;7.85;;;;;;;;;;511977;28;1056;-72
2023/06/02 01:44:11;;;;;;;8.60;7.70;;;;;;;;;;511337;28;1497;-72
2023/06/02 01:44:27;;;;;;;8.70;7.80;;;;;;;;;;509243;28;1413;-72
2023/06/02 01:44:44;;;;;;;8.77;7.82;;;;;;;;;;511825;28;1119;-73
2023/06/02 01:45:03;;;;;;;8.88;7.75;;;;;;;;;;512142;28;1523;-73
2023/06/02 01:45:20;;;;;;;9.80;7.68;;;;;;;;;;512128;28;1390;-73
2023/06/02 01:45:37;;;;;;;8.70;7.53;;;;;;;;;;514018;28;1283;-73
2023/06/02 01:45:57;;;;;;;8.60;7.70;;;;;;;;;;511473;28;1336;-72
2023/06/02 01:46:13;;;;;;;8.63;7.47;;;;;;;;;;511816;28;1299;-72
2023/06/02 01:46:28;;;;;;;8.98;7.65;;;;;;;;;;511265;28;1481;-73
2023/06/02 01:46:44;;;;;;;8.70;7.72;;;;;;;;;;511300;28;1397;-73
2023/06/02 01:47:01;;;;;;;8.90;7.57;;;;;;;;;;511509;28;1155;-72
2023/06/02 01:47:21;;;;;;;9.00;7.68;;;;;;;;;;506650;28;1349;-72
2023/06/02 01:47:37;;;;;;;8.70;7.35;;;;;;;;;;507784;28;1332;-72
2023/06/02 01:48:00;;;;;;;8.50;7.15;;;;;;;;;;507356;28;1500;-72
2023/06/02 01:48:17;;;;;;;7.97;7.18;;;;;;;;;;506296;28;982;-72
2023/06/02 01:48:32;;;;;;;8.18;7.03;;;;;;;;;;508934;28;1305;-72
2023/06/02 01:48:52;;;;;;;8.10;7.30;;;;;;;;;;510735;28;987;-72
2023/06/02 01:49:17;;;;;;;8.90;7.53;;;;;;;;;;510679;28;1174;-72
2023/06/02 01:49:33;;;;;;;8.60;7.25;;;;;;;;;;510885;28;943;-72
2023/06/02 01:49:52;;;;;;;8.43;7.55;;;;;;;;;;511745;28;1048;-72
2023/06/02 01:50:08;;;;;;;9.35;8.25;;;;;;;;;;510865;28;1417;-72
2023/06/02 01:50:23;;;;;;;9.52;8.10;;;;;;;;;;512293;28;1317;-72
2023/06/02 01:50:41;;;;;;;10.23;8.07;;;;;;;;;;510207;28;1398;-72
2023/06/02 01:50:57;;;;;;;11.68;8.15;;;;;;;;;;510495;28;1580;-73
2023/06/02 01:51:13;;;;;;;11.73;8.00;;;;;;;;;;512115;28;1333;-73
2023/06/02 01:51:29;;;;;;;9.65;7.90;;;;;;;;;;512463;28;946;-72
2023/06/02 01:51:45;;;;;;;9.25;7.88;;;;;;;;;;512288;28;1294;-72
2023/06/02 01:52:02;;;;;;;9.82;7.90;;;;;;;;;;510223;28;1278;-72
2023/06/02 01:52:17;;;;;;;10.15;7.72;;;;;;;;;;509870;28;1545;-72
2023/06/02 01:52:35;;;;;;;9.23;7.80;;;;;;;;;;510303;28;1335;-72
2023/06/02 01:52:51;;;;;;;8.60;7.70;;;;;;;;;;510945;28;1095;-72
2023/06/02 01:53:06;;;;;;;8.55;7.75;;;;;;;;;;512447;28;1104;-73
2023/06/02 01:53:26;;;;;;;8.85;7.88;;;;;;;;;;512289;28;968;-72
2023/06/02 01:53:41;;;;;;;9.02;7.80;;;;;;;;;;512734;28;1462;-72
2023/06/02 01:54:01;;;;;;;9.07;7.90;;;;;;;;;;511112;28;1402;-73
2023/06/02 01:54:16;;;;;;;9.80;7.70;;;;;;;;;;510486;28;1361;-72
2023/06/02 01:54:32;;;;;;;8.98;7.50;;;;;;;;;;508967;28;1554;-73
2023/06/02 01:54:50;;;;;;;8.10;7.30;;;;;;;;;;508009;28;1257;-73
2023/06/02 01:55:06;;;;;;;8.50;7.60;;;;;;;;;;505393;28;1352;-73
2023/06/02 01:55:22;;;;;;;8.90;8.00;;;;;;;;;;505137;28;1002;-71
2023/06/02 01:55:38;;;;;;;8.77;7.88;;;;;;;;;;505586;28;1456;-72
2023/06/02 01:56:17;;;;;;;9.05;7.50;;;;;;;;;;506887;28;1464;-72
2023/06/02 01:56:32;;;;;;;8.60;7.47;;;;;;;;;;511021;28;949;-72
2023/06/02 01:56:48;;;;;;;8.57;7.45;;;;;;;;;;514419;28;1089;-72
2023/06/02 01:57:06;;;;;;;8.83;7.47;;;;;;;;;;512346;28;1297;-72
2023/06/02 01:57:22;;;;;;;7.90;7.10;;;;;;;;;;512464;28;1109;-72
2023/06/02 01:57:38;;;;;;;8.53;7.33;;;;;;;;;;512703;28;1426;-72
2023/06/02 01:57:56;;;;;;;9.38;7.53;;;;;;;;;;515078;28;1071;-72
2023/06/02 01:58:15;;;;;;;9.10;7.53;;;;;;;;;;513402;28;1343;-72
2023/06/02 01:58:30;;;;;;;9.70;7.70;;;;;;;;;;511707;28;1430;-72
2023/06/02 01:58:48;;;;;;;9.55;7.85;;;;;;;;;;511517;28;1321;-72
2023/06/02 01:59:04;;;;;;;9.50;7.88;;;;;;;;;;511557;28;1162;-73
2023/06/02 01:59:23;;;;;;;8.82;7.90;;;;;;;;;;509483;28;1391;-72
2023/06/02 01:59:38;;;;;;;8.75;7.85;;;;;;;;;;510745;28;963;-72
2023/06/02 01:59:56;;;;;;;9.15;7.55;;;;;;;;;;510760;28;1333;-72
2023/06/02 02:00:13;;;;;;;9.75;7.75;;;;;;;;;;510672;28;1396;-72
2023/06/02 02:00:29;;;;;;;9.07;7.70;;;;;;;;;;509725;28;1559;-73
2023/06/02 02:00:47;;;;;;;8.50;7.60;;;;;;;;;;508823;28;1304;-72
2023/06/02 02:01:03;;;;;;;9.38;7.85;;;;;;;;;;509160;28;1370;-72